createdAt,value
2018-02-13T00:01:06.144Z,100987
2018-02-13T00:03:34.565Z,100982
2018-02-13T00:06:02.864Z,100983
2018-02-13T00:08:31.049Z,100986
2018-02-13T00:10:59.312Z,100991
2018-02-13T00:13:28.265Z,100991
2018-02-13T00:15:56.476Z,100991
2018-02-13T00:18:24.816Z,100995
2018-02-13T00:20:52.998Z,101004
2018-02-13T00:23:21.176Z,100997
2018-02-13T00:25:49.435Z,101000
2018-02-13T00:28:17.625Z,101005
2018-02-13T00:30:46.198Z,100999
2018-02-13T00:33:14.416Z,101011
2018-02-13T00:35:42.647Z,101006
2018-02-13T00:38:10.847Z,101007
2018-02-13T00:40:39.794Z,101013
2018-02-13T00:43:08.108Z,101007
2018-02-13T00:45:37.090Z,101004
2018-02-13T00:48:06.061Z,101008
2018-02-13T00:50:34.312Z,100991
2018-02-13T00:53:02.520Z,101005
2018-02-13T00:55:30.726Z,100996
2018-02-13T00:57:58.945Z,101006
2018-02-13T01:00:27.166Z,101001
2018-02-13T01:02:56.118Z,101005
2018-02-13T01:05:24.324Z,101005
2018-02-13T01:07:53.295Z,100999
2018-02-13T01:10:21.500Z,100999
2018-02-13T01:12:50.472Z,100996
2018-02-13T01:15:18.669Z,101009
2018-02-13T01:17:47.645Z,101015
2018-02-13T01:20:16.597Z,101002
2018-02-13T01:22:44.784Z,100999
2018-02-13T01:25:13.181Z,100999
2018-02-13T01:27:41.454Z,101001
2018-02-13T01:30:09.687Z,100997
2018-02-13T01:32:38.029Z,101000
2018-02-13T01:35:06.228Z,100998
2018-02-13T01:37:34.464Z,100994
2018-02-13T01:40:03.441Z,101010
2018-02-13T01:42:31.736Z,101010
2018-02-13T01:45:00.689Z,101001
2018-02-13T01:47:28.913Z,101005
2018-02-13T01:49:57.132Z,101009
2018-02-13T01:52:25.336Z,101009
2018-02-13T01:54:54.308Z,101014
2018-02-13T01:57:22.529Z,101008
2018-02-13T01:59:50.800Z,101014
2018-02-13T02:02:20.993Z,101016
2018-02-13T02:04:49.702Z,101018
2018-02-13T02:07:17.900Z,101014
2018-02-13T02:09:46.081Z,101025
2018-02-13T02:12:14.324Z,101014
2018-02-13T02:14:43.292Z,101014
2018-02-13T02:17:11.473Z,101009
2018-02-13T02:19:40.476Z,101013
2018-02-13T02:22:09.545Z,101013
2018-02-13T02:24:37.849Z,101024
2018-02-13T02:27:06.917Z,101014
2018-02-13T02:29:35.224Z,101014
2018-02-13T02:32:03.433Z,101020
2018-02-13T02:34:31.682Z,101005
2018-02-13T02:36:59.939Z,101019
2018-02-13T02:39:28.921Z,101013
2018-02-13T02:41:57.913Z,101008
2018-02-13T02:44:26.881Z,101007
2018-02-13T02:46:55.169Z,101013
2018-02-13T02:49:23.374Z,101013
2018-02-13T02:51:51.612Z,101011
2018-02-13T02:54:20.311Z,101014
2018-02-13T02:56:49.876Z,101014
2018-02-13T02:59:18.060Z,101017
2018-02-13T03:01:46.461Z,101016
2018-02-13T03:04:14.641Z,101022
2018-02-13T03:06:42.847Z,101012
2018-02-13T03:09:11.068Z,101016
2018-02-13T03:11:39.279Z,101010
2018-02-13T03:14:08.371Z,101015
2018-02-13T03:16:37.347Z,101015
2018-02-13T03:19:06.312Z,101019
2018-02-13T03:21:34.652Z,101025
2018-02-13T03:24:02.841Z,101026
2018-02-13T03:26:31.052Z,101012
2018-02-13T03:28:59.248Z,101023
2018-02-13T03:31:28.305Z,101014
2018-02-13T03:33:56.506Z,101033
2018-02-13T03:36:25.489Z,101026
2018-02-13T03:38:53.698Z,101026
2018-02-13T03:41:21.911Z,101021
2018-02-13T03:43:50.136Z,101025
2018-02-13T03:46:18.316Z,101033
2018-02-13T03:48:46.585Z,101028
2018-02-13T03:51:14.773Z,101038
2018-02-13T03:53:42.954Z,101026
2018-02-13T03:56:12.024Z,101033
2018-02-13T03:58:40.236Z,101036
2018-02-13T04:01:08.440Z,101024
2018-02-13T04:03:36.696Z,101032
2018-02-13T04:06:04.880Z,101038
2018-02-13T04:08:33.856Z,101029
2018-02-13T04:11:02.060Z,101028
2018-02-13T04:13:30.240Z,101035
2018-02-13T04:15:59.227Z,101034
2018-02-13T04:18:27.436Z,101043
2018-02-13T04:20:55.678Z,101037
2018-02-13T04:23:23.889Z,101036
2018-02-13T04:25:52.128Z,101039
2018-02-13T04:28:20.746Z,101043
2018-02-13T04:30:49.021Z,101048
2018-02-13T04:33:17.431Z,101038
2018-02-13T04:35:45.639Z,101039
2018-02-13T04:38:14.852Z,101029
2018-02-13T04:40:43.829Z,101031
2018-02-13T04:43:12.836Z,101032
2018-02-13T04:45:42.014Z,101034
2018-02-13T04:48:10.197Z,101029
2018-02-13T04:50:39.152Z,101029
2018-02-13T04:53:07.392Z,101031
2018-02-13T04:55:35.647Z,101032
2018-02-13T04:58:03.836Z,101026
2018-02-13T05:00:32.046Z,101046
2018-02-13T05:03:00.264Z,101041
2018-02-13T05:05:29.251Z,101038
2018-02-13T05:07:58.299Z,101032
2018-02-13T05:10:26.490Z,101031
2018-02-13T05:12:54.708Z,101046
2018-02-13T05:15:22.956Z,101041
2018-02-13T05:17:51.224Z,101045
2018-02-13T05:20:19.525Z,101039
2018-02-13T05:22:49.336Z,101044
2018-02-13T05:25:18.308Z,101045
2018-02-13T05:27:47.320Z,101050
2018-02-13T05:30:16.276Z,101045
2018-02-13T05:32:44.499Z,101040
2018-02-13T05:35:12.798Z,101050
2018-02-13T05:37:41.021Z,101045
2018-02-13T05:40:10.055Z,101040
2018-02-13T05:42:38.969Z,101044
2018-02-13T05:45:07.184Z,101039
2018-02-13T05:47:36.284Z,101038
2018-02-13T05:50:06.069Z,101045
2018-02-13T05:52:34.358Z,101049
2018-02-13T05:55:03.474Z,101046
2018-02-13T05:57:31.713Z,101050
2018-02-13T05:59:59.948Z,101040
2018-02-13T06:02:28.980Z,101047
2018-02-13T06:04:57.208Z,101056
2018-02-13T06:07:25.424Z,101050
2018-02-13T06:09:53.666Z,101044
2018-02-13T06:12:21.884Z,101056
2018-02-13T06:14:50.077Z,101049
2018-02-13T06:17:19.176Z,101060
2018-02-13T06:19:47.368Z,101053
2018-02-13T06:22:15.622Z,101062
2018-02-13T06:24:43.897Z,101059
2018-02-13T06:27:12.862Z,101056
2018-02-13T06:29:41.147Z,101057
2018-02-13T06:32:09.441Z,101060
2018-02-13T06:34:37.632Z,101068
2018-02-13T06:37:05.864Z,101070
2018-02-13T06:39:34.072Z,101063
2018-02-13T06:42:02.265Z,101066
2018-02-13T06:44:30.497Z,101063
2018-02-13T06:46:59.453Z,101074
2018-02-13T06:49:27.676Z,101078
2018-02-13T06:51:55.926Z,101078
2018-02-13T06:54:24.128Z,101078
2018-02-13T06:56:52.336Z,101081
2018-02-13T06:59:20.596Z,101077
2018-02-13T07:01:48.794Z,101068
2018-02-13T07:04:16.997Z,101075
2018-02-13T07:06:45.296Z,101077
2018-02-13T07:09:13.492Z,101073
2018-02-13T07:11:41.674Z,101073
2018-02-13T07:14:10.101Z,101078
2018-02-13T07:16:38.418Z,101088
2018-02-13T07:19:06.768Z,101073
2018-02-13T07:21:35.765Z,101076
2018-02-13T07:24:04.287Z,101085
2018-02-13T07:26:32.516Z,101083
2018-02-13T07:29:01.497Z,101087
2018-02-13T07:31:30.482Z,101087
2018-02-13T07:33:58.704Z,101092
2018-02-13T07:36:26.920Z,101094
2018-02-13T07:38:55.112Z,101092
2018-02-13T07:41:24.196Z,101093
2018-02-13T07:43:52.415Z,101110
2018-02-13T07:46:20.624Z,101109
2018-02-13T07:48:48.827Z,101106
2018-02-13T07:51:18.416Z,101113
2018-02-13T07:53:46.750Z,101114
2018-02-13T07:56:14.965Z,101109
2018-02-13T07:58:43.168Z,101115
2018-02-13T08:01:12.164Z,101117
2018-02-13T08:03:41.124Z,101109
2018-02-13T08:06:09.334Z,101111
2018-02-13T08:08:37.556Z,101112
2018-02-13T08:11:05.783Z,101120
2018-02-13T08:13:34.012Z,101111
2018-02-13T08:16:02.214Z,101109
2018-02-13T08:18:31.196Z,101101
2018-02-13T08:20:59.793Z,101104
2018-02-13T08:23:28.746Z,101089
2018-02-13T08:25:56.965Z,101108
2018-02-13T08:28:25.180Z,101100
2018-02-13T08:30:53.360Z,101104
2018-02-13T08:33:21.551Z,101105
2018-02-13T08:35:49.944Z,101092
2018-02-13T08:38:18.156Z,101103
2018-02-13T08:40:46.348Z,101105
2018-02-13T08:43:14.567Z,101103
2018-02-13T08:45:43.568Z,101104
2018-02-13T08:48:12.516Z,101110
2018-02-13T08:50:40.709Z,101110
2018-02-13T08:53:08.928Z,101115
2018-02-13T08:55:37.140Z,101107
2018-02-13T08:58:05.368Z,101101
2018-02-13T09:00:33.622Z,101107
2018-02-13T09:03:03.488Z,101096
2018-02-13T09:05:31.704Z,101099
2018-02-13T09:07:59.936Z,101103
2018-02-13T09:10:28.143Z,101094
2018-02-13T09:12:56.384Z,101099
2018-02-13T09:15:24.612Z,101096
2018-02-13T09:17:53.612Z,101103
2018-02-13T09:20:22.695Z,101093
2018-02-13T09:22:50.987Z,101102
2018-02-13T09:25:19.256Z,101105
2018-02-13T09:27:47.463Z,101091
2018-02-13T09:30:15.672Z,101094
2018-02-13T09:32:43.924Z,101088
2018-02-13T09:35:12.141Z,101085
2018-02-13T09:37:41.121Z,101084
2018-02-13T09:40:09.335Z,101078
2018-02-13T09:42:38.128Z,101081
2018-02-13T09:45:06.380Z,101084
2018-02-13T09:47:34.660Z,101086
2018-02-13T09:50:02.852Z,101080
2018-02-13T09:52:31.076Z,101084
2018-02-13T09:54:59.563Z,101082
2018-02-13T09:57:28.365Z,101088
2018-02-13T09:59:57.354Z,101082
2018-02-13T10:02:26.308Z,101082
2018-02-13T10:04:54.492Z,101089
2018-02-13T10:07:22.759Z,101092
2018-02-13T10:09:50.973Z,101080
2018-02-13T10:12:20.060Z,101083
2018-02-13T10:14:49.044Z,101083
2018-02-13T10:17:17.264Z,101076
2018-02-13T10:19:45.448Z,101087
2018-02-13T10:22:13.985Z,101093
2018-02-13T10:24:42.968Z,101079
2018-02-13T10:27:12.076Z,101075
2018-02-13T10:29:40.297Z,101095
2018-02-13T10:32:08.513Z,101069
2018-02-13T10:34:37.496Z,101079
2018-02-13T10:37:07.297Z,101076
2018-02-13T10:39:35.492Z,101068
2018-02-13T10:42:04.446Z,101074
2018-02-13T10:44:32.652Z,101076
2018-02-13T10:47:01.642Z,101073
2018-02-13T10:49:31.061Z,101056
2018-02-13T10:51:59.291Z,101062
2018-02-13T10:54:27.508Z,101058
2018-02-13T10:56:55.753Z,101056
2018-02-13T10:59:23.984Z,101062
2018-02-13T11:01:52.177Z,101060
2018-02-13T11:04:20.417Z,101055
2018-02-13T11:06:48.713Z,101056
2018-02-13T11:09:17.093Z,101049
2018-02-13T11:11:45.428Z,101052
2018-02-13T11:14:14.396Z,101056
2018-02-13T11:16:42.617Z,101048
2018-02-13T11:19:10.849Z,101049
2018-02-13T11:21:39.290Z,101045
2018-02-13T11:24:07.489Z,101041
2018-02-13T11:26:36.247Z,101054
2018-02-13T11:29:04.445Z,101047
2018-02-13T11:31:32.780Z,101037
2018-02-13T11:34:00.999Z,101039
2018-02-13T11:36:29.296Z,101039
2018-02-13T11:38:57.525Z,101039
2018-02-13T11:41:25.875Z,101031
2018-02-13T11:43:54.090Z,101024
2018-02-13T11:46:22.300Z,101027
2018-02-13T11:48:51.284Z,101033
2018-02-13T11:51:19.504Z,101025
2018-02-13T11:53:47.708Z,101022
2018-02-13T11:56:15.948Z,101022
2018-02-13T11:58:44.158Z,101016
2018-02-13T12:01:12.482Z,101021
2018-02-13T12:03:40.712Z,101021
2018-02-13T12:06:09.372Z,101018
2018-02-13T12:08:37.584Z,101014
2018-02-13T12:11:06.121Z,101017
2018-02-13T12:13:34.401Z,101014
2018-02-13T12:16:02.820Z,101016
2018-02-13T12:18:31.033Z,101010
2018-02-13T12:20:59.294Z,101010
2018-02-13T12:23:28.396Z,101007
2018-02-13T12:25:56.669Z,101002
2018-02-13T12:28:24.881Z,101010
2018-02-13T12:30:53.076Z,101004
2018-02-13T12:33:21.306Z,101000
2018-02-13T12:35:49.592Z,100995
2018-02-13T12:38:18.410Z,100982
2018-02-13T12:40:46.696Z,100983
2018-02-13T12:43:14.892Z,100984
2018-02-13T12:45:43.849Z,100988
2018-02-13T12:48:12.919Z,100976
2018-02-13T12:50:41.194Z,100986
2018-02-13T12:53:09.409Z,100979
2018-02-13T12:55:38.423Z,100980
2018-02-13T12:58:07.852Z,100972
2018-02-13T13:00:36.065Z,100963
2018-02-13T13:03:04.334Z,100972
2018-02-13T13:05:32.529Z,100964
2018-02-13T13:08:00.720Z,100978
2018-02-13T13:10:29.758Z,100972
2018-02-13T13:12:57.973Z,100962
2018-02-13T13:15:26.188Z,100954
2018-02-13T13:17:54.464Z,100966
2018-02-13T13:20:23.470Z,100963
2018-02-13T13:22:51.661Z,100960
2018-02-13T13:25:19.839Z,100954
2018-02-13T13:27:48.090Z,100952
2018-02-13T13:30:16.883Z,100949
2018-02-13T13:32:45.069Z,100949
2018-02-13T13:35:14.044Z,100958
2018-02-13T13:37:42.220Z,100944
2018-02-13T13:40:10.378Z,100953
2018-02-13T13:42:38.521Z,100959
2018-02-13T13:45:07.442Z,100951
2018-02-13T13:47:35.717Z,100952
2018-02-13T13:50:03.853Z,100952
2018-02-13T13:52:32.761Z,100950
2018-02-13T13:55:01.678Z,100946
2018-02-13T13:57:30.244Z,100945
2018-02-13T13:59:58.382Z,100944
2018-02-13T14:02:26.517Z,100946
2018-02-13T14:04:54.690Z,100944
2018-02-13T14:07:23.543Z,100941
2018-02-13T14:09:52.451Z,100945
2018-02-13T14:12:20.605Z,100938
2018-02-13T14:14:48.745Z,100945
2018-02-13T14:17:16.922Z,100939
2018-02-13T14:19:45.848Z,100940
2018-02-13T14:22:14.305Z,100947
2018-02-13T14:24:43.538Z,100950
2018-02-13T14:27:11.700Z,100946
2018-02-13T14:29:39.873Z,100942
2018-02-13T14:32:08.047Z,100948
2018-02-13T14:34:36.222Z,100944
2018-02-13T14:37:04.369Z,100952
2018-02-13T14:39:33.269Z,100947
2018-02-13T14:42:01.763Z,100939
2018-02-13T14:44:30.413Z,100946
2018-02-13T14:46:58.573Z,100945
2018-02-13T14:49:26.713Z,100959
2018-02-13T14:51:54.861Z,100967
2018-02-13T14:54:23.026Z,100964
2018-02-13T14:56:51.170Z,100969
2018-02-13T14:59:19.393Z,100972
2018-02-13T15:01:47.549Z,100973
2018-02-13T15:04:15.720Z,100967
2018-02-13T15:06:43.904Z,100968
2018-02-13T15:09:12.682Z,100975
2018-02-13T15:11:40.835Z,100972
2018-02-13T15:14:09.778Z,100962
2018-02-13T15:16:39.437Z,100968
2018-02-13T15:19:08.352Z,100967
2018-02-13T15:21:36.533Z,100978
2018-02-13T15:24:04.677Z,100970
2018-02-13T15:26:33.613Z,100973
2018-02-13T15:29:01.793Z,100980
2018-02-13T15:31:29.945Z,100983
2018-02-13T15:33:58.105Z,100985
2018-02-13T15:36:26.298Z,100986
2018-02-13T15:38:54.433Z,100985
2018-02-13T15:41:22.585Z,100988
2018-02-13T15:43:50.809Z,100976
2018-02-13T15:46:18.960Z,100987
2018-02-13T15:48:47.103Z,100995
2018-02-13T15:51:15.254Z,100999
2018-02-13T15:53:43.396Z,100996
2018-02-13T15:56:11.729Z,101000
2018-02-13T15:58:40.679Z,100994
2018-02-13T16:01:08.811Z,100994
2018-02-13T16:03:36.970Z,100994
2018-02-13T16:06:05.883Z,100999
2018-02-13T16:08:34.045Z,101001
2018-02-13T16:11:02.211Z,100995
2018-02-13T16:13:31.902Z,100997
2018-02-13T16:16:00.053Z,100999
2018-02-13T16:18:28.293Z,100994
2018-02-13T16:20:56.429Z,100995
2018-02-13T16:23:25.365Z,100994
2018-02-13T16:25:53.525Z,100996
2018-02-13T16:28:21.709Z,100997
2018-02-13T16:30:49.863Z,100985
2018-02-13T16:33:18.034Z,100989
2018-02-13T16:35:46.226Z,100988
2018-02-13T16:38:14.374Z,100989
2018-02-13T16:40:42.569Z,100988
2018-02-13T16:43:10.853Z,100991
2018-02-13T16:45:39.036Z,100985
2018-02-13T16:48:07.197Z,100991
2018-02-13T16:50:35.378Z,100985
2018-02-13T16:53:03.506Z,100990
2018-02-13T16:55:32.415Z,100992
2018-02-13T16:58:00.566Z,100993
2018-02-13T17:00:30.284Z,100994
2018-02-13T17:02:58.433Z,101001
2018-02-13T17:05:26.654Z,101002
2018-02-13T17:07:54.784Z,101001
2018-02-13T17:10:23.687Z,100999
2018-02-13T17:12:52.661Z,100993
2018-02-13T17:15:21.113Z,101000
2018-02-13T17:17:49.254Z,100992
2018-02-13T17:20:17.415Z,100999
2018-02-13T17:22:45.550Z,101008
2018-02-13T17:25:13.689Z,101000
2018-02-13T17:27:41.837Z,101001
2018-02-13T17:30:09.973Z,100996
2018-02-13T17:32:38.218Z,101000
2018-02-13T17:35:06.380Z,101012
2018-02-13T17:37:34.581Z,101002
2018-02-13T17:40:02.815Z,101002
2018-02-13T17:42:30.965Z,101013
2018-02-13T17:44:59.122Z,101005
2018-02-13T17:47:28.026Z,101008
2018-02-13T17:49:56.161Z,101021
2018-02-13T17:52:24.318Z,101019
2018-02-13T17:54:52.976Z,101024
2018-02-13T17:57:21.117Z,101020
2018-02-13T17:59:50.025Z,101026
2018-02-13T18:02:18.193Z,101025
2018-02-13T18:04:46.338Z,101026
2018-02-13T18:07:14.569Z,101026
2018-02-13T18:09:42.727Z,101026
2018-02-13T18:12:10.916Z,101030
2018-02-13T18:14:39.194Z,101039
2018-02-13T18:17:07.336Z,101039
2018-02-13T18:19:35.485Z,101038
2018-02-13T18:22:04.629Z,101037
2018-02-13T18:24:33.615Z,101039
2018-02-13T18:27:01.754Z,101029
2018-02-13T18:29:30.698Z,101035
2018-02-13T18:31:58.842Z,101032
2018-02-13T18:34:27.153Z,101039
2018-02-13T18:36:55.312Z,101041
2018-02-13T18:39:24.052Z,101042
2018-02-13T18:41:52.995Z,101041
2018-02-13T18:44:21.972Z,101051
2018-02-13T18:46:50.101Z,101047
2018-02-13T18:49:19.055Z,101033
2018-02-13T18:51:47.192Z,101043
2018-02-13T18:54:15.333Z,101048
2018-02-13T18:56:44.297Z,101052
2018-02-13T18:59:12.545Z,101046
2018-02-13T19:01:40.694Z,101046
2018-02-13T19:04:08.855Z,101051
2018-02-13T19:06:37.781Z,101053
2018-02-13T19:09:05.973Z,101051
2018-02-13T19:11:34.141Z,101045
2018-02-13T19:14:02.282Z,101049
2018-02-13T19:16:30.466Z,101055
2018-02-13T19:18:58.596Z,101060
2018-02-13T19:21:27.498Z,101046
2018-02-13T19:23:56.429Z,101042
2018-02-13T19:26:24.566Z,101056
2018-02-13T19:28:52.705Z,101060
2018-02-13T19:31:20.860Z,101059
2018-02-13T19:33:48.992Z,101058
2018-02-13T19:36:17.290Z,101064
2018-02-13T19:38:45.425Z,101062
2018-02-13T19:41:14.333Z,101067
2018-02-13T19:43:42.514Z,101064
2018-02-13T19:46:10.654Z,101059
2018-02-13T19:48:39.561Z,101072
2018-02-13T19:51:07.733Z,101065
2018-02-13T19:53:35.922Z,101065
2018-02-13T19:56:04.166Z,101063
2018-02-13T19:58:33.197Z,101067
2018-02-13T20:01:01.341Z,101074
2018-02-13T20:03:29.486Z,101066
2018-02-13T20:05:58.502Z,101070
2018-02-13T20:08:26.640Z,101069
2018-02-13T20:10:54.781Z,101074
2018-02-13T20:13:22.941Z,101079
2018-02-13T20:15:51.073Z,101082
2018-02-13T20:18:19.208Z,101079
2018-02-13T20:20:47.793Z,101080
2018-02-13T20:23:15.934Z,101071
2018-02-13T20:25:44.079Z,101080
2018-02-13T20:28:12.998Z,101080
2018-02-13T20:30:41.165Z,101076
2018-02-13T20:33:09.860Z,101073
2018-02-13T20:35:38.001Z,101076
2018-02-13T20:38:06.901Z,101073
2018-02-13T20:40:35.840Z,101081
2018-02-13T20:43:03.980Z,101076
2018-02-13T20:45:32.169Z,101079
2018-02-13T20:48:00.317Z,101082
2018-02-13T20:50:28.485Z,101089
2018-02-13T20:52:56.626Z,101089
2018-02-13T20:55:24.770Z,101089
2018-02-13T20:57:53.033Z,101100
2018-02-13T21:00:21.249Z,101096
2018-02-13T21:02:49.385Z,101103
2018-02-13T21:05:17.555Z,101096
2018-02-13T21:07:46.253Z,101099
2018-02-13T21:10:14.389Z,101100
2018-02-13T21:12:42.574Z,101106
2018-02-13T21:15:10.749Z,101108
2018-02-13T21:17:38.888Z,101108
2018-02-13T21:20:07.833Z,101110
2018-02-13T21:22:35.973Z,101110
2018-02-13T21:25:04.101Z,101106
2018-02-13T21:27:32.333Z,101109
2018-02-13T21:30:00.505Z,101114
2018-02-13T21:32:28.702Z,101105
2018-02-13T21:34:56.841Z,101106
2018-02-13T21:37:24.969Z,101107
2018-02-13T21:39:53.132Z,101106
2018-02-13T21:42:21.261Z,101103
2018-02-13T21:44:49.398Z,101101
2018-02-13T21:47:18.447Z,101092
2018-02-13T21:49:46.586Z,101096
2018-02-13T21:52:14.725Z,101104
2018-02-13T21:54:43.421Z,101102
2018-02-13T21:57:12.358Z,101096
2018-02-13T21:59:40.533Z,101102
2018-02-13T22:02:08.946Z,101096
2018-02-13T22:04:37.077Z,101096
2018-02-13T22:07:05.224Z,101104
2018-02-13T22:09:33.373Z,101103
2018-02-13T22:12:01.635Z,101114
2018-02-13T22:14:29.769Z,101104
2018-02-13T22:16:57.911Z,101101
2018-02-13T22:19:26.184Z,101111
2018-02-13T22:21:55.157Z,101115
2018-02-13T22:24:23.303Z,101109
2018-02-13T22:26:51.662Z,101115
2018-02-13T22:29:19.827Z,101115
2018-02-13T22:31:47.961Z,101117
2018-02-13T22:34:16.939Z,101111
2018-02-13T22:36:45.172Z,101117
2018-02-13T22:39:13.329Z,101124
2018-02-13T22:41:41.465Z,101117
2018-02-13T22:44:09.609Z,101116
2018-02-13T22:46:37.958Z,101115
2018-02-13T22:49:06.093Z,101121
2018-02-13T22:51:35.559Z,101122
2018-02-13T22:54:03.707Z,101124
2018-02-13T22:56:32.637Z,101127
2018-02-13T22:59:01.610Z,101126
2018-02-13T23:01:30.353Z,101129
2018-02-13T23:03:59.325Z,101134
2018-02-13T23:06:28.222Z,101137
2018-02-13T23:08:57.117Z,101133
2018-02-13T23:11:26.045Z,101118
2018-02-13T23:13:54.176Z,101128
2018-02-13T23:16:23.081Z,101135
2018-02-13T23:18:51.257Z,101134
2018-02-13T23:21:19.449Z,101132
2018-02-13T23:23:47.585Z,101135
2018-02-13T23:26:16.534Z,101140
2018-02-13T23:28:44.690Z,101129
2018-02-13T23:31:12.825Z,101134
2018-02-13T23:33:41.855Z,101132
2018-02-13T23:36:10.016Z,101142
2018-02-13T23:38:38.153Z,101134
2018-02-13T23:41:07.084Z,101145
2018-02-13T23:43:35.226Z,101133
2018-02-13T23:46:04.134Z,101138
2018-02-13T23:48:32.293Z,101133
2018-02-13T23:51:00.497Z,101145
2018-02-13T23:53:28.674Z,101148
2018-02-13T23:55:57.658Z,101143
2018-02-13T23:58:25.794Z,101146
